createdAt,value
2023-02-11T00:01:10.073Z,-10.92
2023-02-11T00:03:38.896Z,-10.91
2023-02-11T00:06:09.537Z,-10.92
2023-02-11T00:08:37.776Z,-10.93
2023-02-11T00:11:06.176Z,-10.93
2023-02-11T00:13:34.366Z,-10.93
2023-02-11T00:16:06.193Z,-10.93
2023-02-11T00:18:33.919Z,-10.93
2023-02-11T00:21:05.958Z,-10.94
2023-02-11T00:23:33.822Z,-10.96
2023-02-11T00:26:01.793Z,-10.97
2023-02-11T00:28:29.743Z,-10.98
2023-02-11T00:30:57.918Z,-11.01
2023-02-11T00:33:25.705Z,-11.02
2023-02-11T00:35:53.551Z,-11.02
2023-02-11T00:38:21.532Z,-11.02
2023-02-11T00:40:49.270Z,-11.03
2023-02-11T00:43:17.164Z,-11.04
2023-02-11T00:45:45.122Z,-11.04
2023-02-11T00:48:12.974Z,-11.04
2023-02-11T00:50:41.255Z,-11.05
2023-02-11T00:53:09.017Z,-11.05
2023-02-11T00:55:37.011Z,-11.06
2023-02-11T00:58:05.152Z,-11.07
2023-02-11T01:00:33.053Z,-11.08
2023-02-11T01:03:01.025Z,-11.08
2023-02-11T01:05:29.069Z,-11.10
2023-02-11T01:07:57.801Z,-11.12
2023-02-11T01:10:25.655Z,-11.12
2023-02-11T01:12:53.938Z,-11.13
2023-02-11T01:15:21.986Z,-11.13
2023-02-11T01:17:50.967Z,-11.13
2023-02-11T01:20:21.568Z,-11.16
2023-02-11T01:22:49.403Z,-11.17
2023-02-11T01:25:17.465Z,-11.17
2023-02-11T01:27:45.441Z,-11.18
2023-02-11T01:30:14.104Z,-11.19
2023-02-11T01:32:42.089Z,-11.20
2023-02-11T01:35:09.966Z,-11.22
2023-02-11T01:37:37.787Z,-11.24
2023-02-11T01:40:06.512Z,-11.26
2023-02-11T01:42:35.813Z,-11.27
2023-02-11T01:45:23.956Z,-11.27
2023-02-11T01:47:51.694Z,-11.29
2023-02-11T01:50:19.937Z,-11.30
2023-02-11T01:52:48.277Z,-11.33
2023-02-11T01:55:35.289Z,-11.33
2023-02-11T01:58:05.261Z,-11.33
2023-02-11T02:00:36.388Z,-11.34
2023-02-11T02:03:18.104Z,-11.37
2023-02-11T02:05:53.692Z,-11.38
2023-02-11T02:08:25.568Z,-11.39
2023-02-11T02:10:56.635Z,-11.39
2023-02-11T02:13:25.245Z,-11.40
2023-02-11T02:15:53.958Z,-11.42
2023-02-11T02:18:28.086Z,-11.42
2023-02-11T02:21:11.261Z,-11.42
2023-02-11T02:23:52.992Z,-11.43
2023-02-11T02:26:33.260Z,-11.44
2023-02-11T02:29:19.448Z,-11.45
2023-02-11T02:31:47.415Z,-11.45
2023-02-11T02:34:38.732Z,-11.47
2023-02-11T02:37:15.201Z,-11.49
2023-02-11T02:39:43.418Z,-11.51
2023-02-11T02:42:12.409Z,-11.54
2023-02-11T02:44:40.199Z,-11.56
2023-02-11T02:47:08.104Z,-11.57
2023-02-11T02:49:36.074Z,-11.59
2023-02-11T02:52:08.795Z,-11.62
2023-02-11T02:54:45.740Z,-11.65
2023-02-11T02:57:32.857Z,-11.69
2023-02-11T03:00:16.388Z,-11.72
2023-02-11T03:03:03.382Z,-11.74
2023-02-11T03:05:34.450Z,-11.76
2023-02-11T03:08:22.581Z,-11.78
2023-02-11T03:10:51.589Z,-11.80
2023-02-11T03:13:22.428Z,-11.81
2023-02-11T03:15:52.696Z,-11.82
2023-02-11T03:18:22.863Z,-11.83
2023-02-11T03:20:53.390Z,-11.85
2023-02-11T03:23:24.132Z,-11.85
2023-02-11T03:25:54.687Z,-11.86
2023-02-11T03:28:31.417Z,-11.87
2023-02-11T03:30:59.412Z,-11.89
2023-02-11T03:33:29.421Z,-11.90
2023-02-11T03:36:00.282Z,-11.92
2023-02-11T03:38:31.915Z,-11.93
2023-02-11T03:41:02.402Z,-11.95
2023-02-11T03:43:44.550Z,-11.96
2023-02-11T03:46:14.631Z,-11.96
2023-02-11T03:48:45.103Z,-11.97
2023-02-11T03:51:14.190Z,-11.99
2023-02-11T03:53:43.597Z,-11.99
2023-02-11T03:56:14.442Z,-12.00
2023-02-11T03:58:44.418Z,-12.00
2023-02-11T04:01:12.392Z,-11.99
2023-02-11T04:03:40.192Z,-12.00
2023-02-11T04:06:08.390Z,-12.00
2023-02-11T04:08:36.431Z,-12.00
2023-02-11T04:11:04.299Z,-12.01
2023-02-11T04:13:32.169Z,-12.01
2023-02-11T04:16:00.031Z,-12.03
2023-02-11T04:18:27.954Z,-12.04
2023-02-11T04:20:55.876Z,-12.04
2023-02-11T04:23:23.635Z,-12.05
2023-02-11T04:25:51.765Z,-12.06
2023-02-11T04:28:20.073Z,-12.06
2023-02-11T04:30:49.193Z,-12.07
2023-02-11T04:33:17.014Z,-12.08
2023-02-11T04:35:45.323Z,-12.09
2023-02-11T04:38:13.294Z,-12.09
2023-02-11T04:40:41.158Z,-12.10
2023-02-11T04:43:09.333Z,-12.12
2023-02-11T04:45:37.133Z,-12.13
2023-02-11T04:48:05.092Z,-12.14
2023-02-11T04:50:33.242Z,-12.16
2023-02-11T04:53:01.007Z,-12.17
2023-02-11T04:55:28.874Z,-12.18
2023-02-11T04:57:56.959Z,-12.19
2023-02-11T05:00:24.825Z,-12.22
2023-02-11T05:02:52.785Z,-12.24
2023-02-11T05:05:20.650Z,-12.24
2023-02-11T05:07:48.901Z,-12.26
2023-02-11T05:10:16.748Z,-12.27
2023-02-11T05:12:44.624Z,-12.28
2023-02-11T05:15:12.550Z,-12.29
2023-02-11T05:17:40.394Z,-12.31
2023-02-11T05:20:08.976Z,-12.33
2023-02-11T05:22:36.947Z,-12.35
2023-02-11T05:25:05.019Z,-12.37
2023-02-11T05:27:33.060Z,-12.37
2023-02-11T05:30:01.060Z,-12.37
2023-02-11T05:32:29.002Z,-12.37
2023-02-11T05:34:57.512Z,-12.38
2023-02-11T05:37:25.274Z,-12.38
2023-02-11T05:39:53.326Z,-12.37
2023-02-11T05:42:21.116Z,-12.36
2023-02-11T05:44:50.621Z,-12.35
2023-02-11T05:47:18.650Z,-12.32
2023-02-11T05:49:46.663Z,-12.28
2023-02-11T05:52:14.537Z,-12.23
2023-02-11T05:54:42.500Z,-12.18
2023-02-11T05:57:10.334Z,-12.10
2023-02-11T05:59:38.699Z,-12.03
2023-02-11T06:02:08.025Z,-11.96
2023-02-11T06:04:36.470Z,-11.87
2023-02-11T06:07:04.472Z,-11.79
2023-02-11T06:09:32.373Z,-11.70
2023-02-11T06:12:00.340Z,-11.61
2023-02-11T06:14:28.430Z,-11.54
2023-02-11T06:16:56.176Z,-11.48
2023-02-11T06:19:24.241Z,-11.39
2023-02-11T06:21:52.006Z,-11.29
2023-02-11T06:24:38.311Z,-11.14
2023-02-11T06:27:08.632Z,-10.95
2023-02-11T06:29:36.498Z,-10.79
2023-02-11T06:32:04.555Z,-10.60
2023-02-11T06:34:32.454Z,-10.42
2023-02-11T06:37:00.219Z,-10.25
2023-02-11T06:39:28.224Z,-9.94
2023-02-11T06:41:56.141Z,-9.52
2023-02-11T06:44:24.127Z,-9.28
2023-02-11T06:46:52.335Z,-9.08
2023-02-11T06:49:20.208Z,-8.81
2023-02-11T06:51:48.239Z,-8.47
2023-02-11T06:54:16.091Z,-7.94
2023-02-11T06:56:43.982Z,-6.91
2023-02-11T06:59:19.013Z,-5.78
2023-02-11T07:01:47.499Z,-4.77
2023-02-11T07:04:15.660Z,-3.88
2023-02-11T07:06:43.516Z,-2.91
2023-02-11T07:09:11.384Z,-2.04
2023-02-11T07:11:39.138Z,-1.60
2023-02-11T07:14:10.960Z,-1.16
2023-02-11T07:16:38.893Z,-0.24
2023-02-11T07:19:06.806Z,0.80
2023-02-11T07:21:35.199Z,1.24
2023-02-11T07:24:08.894Z,1.52
2023-02-11T07:26:38.744Z,2.11
2023-02-11T07:29:06.540Z,3.03
2023-02-11T07:31:34.593Z,3.90
2023-02-11T07:34:02.609Z,4.88
2023-02-11T07:36:32.062Z,5.86
2023-02-11T07:39:00.433Z,6.95
2023-02-11T07:41:28.325Z,7.91
2023-02-11T07:43:56.484Z,8.77
2023-02-11T07:46:26.259Z,9.52
2023-02-11T07:48:55.176Z,10.24
2023-02-11T07:51:25.400Z,10.98
2023-02-11T07:53:53.666Z,11.56
2023-02-11T07:56:22.576Z,11.91
2023-02-11T07:58:50.916Z,11.99
2023-02-11T08:01:22.558Z,11.86
2023-02-11T08:03:50.880Z,11.85
2023-02-11T08:06:20.470Z,11.81
2023-02-11T08:08:48.642Z,11.70
2023-02-11T08:11:18.479Z,11.81
2023-02-11T08:13:46.406Z,11.85
2023-02-11T08:16:22.247Z,12.23
2023-02-11T08:18:51.027Z,12.73
2023-02-11T08:21:19.872Z,13.17
2023-02-11T08:23:47.863Z,13.77
2023-02-11T08:26:20.906Z,14.44
2023-02-11T08:28:50.029Z,15.12
2023-02-11T08:31:25.663Z,15.79
2023-02-11T08:33:54.746Z,16.21
2023-02-11T08:36:23.664Z,16.89
2023-02-11T08:38:51.612Z,17.65
2023-02-11T08:41:19.399Z,17.80
2023-02-11T08:43:47.342Z,18.00
2023-02-11T08:46:16.673Z,18.19
2023-02-11T08:48:45.354Z,18.22
2023-02-11T08:51:20.923Z,18.64
2023-02-11T08:53:48.825Z,19.20
2023-02-11T08:56:17.967Z,19.79
2023-02-11T08:58:45.940Z,20.10
2023-02-11T09:01:14.983Z,20.19
2023-02-11T09:03:43.008Z,20.28
2023-02-11T09:06:12.791Z,20.38
2023-02-11T09:08:46.365Z,19.37
2023-02-11T09:11:14.490Z,18.71
2023-02-11T09:13:43.070Z,18.71
2023-02-11T09:16:24.686Z,19.21
2023-02-11T09:18:53.082Z,19.60
2023-02-11T09:21:20.947Z,19.88
2023-02-11T09:23:48.901Z,19.97
2023-02-11T09:26:18.617Z,19.66
2023-02-11T09:28:47.045Z,19.25
2023-02-11T09:31:17.505Z,18.84
2023-02-11T09:33:49.466Z,18.27
2023-02-11T09:36:18.746Z,17.67
2023-02-11T09:38:47.014Z,17.24
2023-02-11T09:41:18.083Z,17.40
2023-02-11T09:43:48.098Z,17.76
2023-02-11T09:46:17.008Z,18.13
2023-02-11T09:48:47.329Z,18.53
2023-02-11T09:51:30.747Z,18.67
2023-02-11T09:54:05.165Z,18.82
2023-02-11T09:56:33.959Z,19.16
2023-02-11T09:59:02.031Z,19.35
2023-02-11T10:01:42.037Z,19.52
2023-02-11T10:04:19.848Z,19.38
2023-02-11T10:06:56.260Z,18.61
2023-02-11T10:09:26.883Z,17.56
2023-02-11T10:12:13.405Z,16.92
2023-02-11T10:14:59.792Z,16.73
2023-02-11T10:17:38.932Z,15.73
2023-02-11T10:20:06.739Z,14.63
2023-02-11T10:22:47.255Z,14.01
2023-02-11T10:25:18.944Z,13.25
2023-02-11T10:27:47.260Z,12.42
2023-02-11T10:30:37.407Z,11.70
2023-02-11T10:33:24.531Z,11.25
2023-02-11T10:35:52.477Z,10.60
2023-02-11T10:38:20.330Z,10.07
2023-02-11T10:40:48.382Z,9.49
2023-02-11T10:43:17.604Z,9.11
2023-02-11T10:45:49.105Z,8.93
2023-02-11T10:48:35.582Z,8.75
2023-02-11T10:51:42.115Z,8.66
2023-02-11T10:54:14.518Z,8.61
2023-02-11T10:56:45.866Z,8.65
2023-02-11T10:59:13.720Z,8.62
2023-02-11T11:01:45.142Z,8.27
2023-02-11T11:04:32.264Z,7.90
2023-02-11T11:07:14.605Z,7.49
2023-02-11T11:09:53.242Z,7.17
2023-02-11T11:12:29.484Z,6.77
2023-02-11T11:14:59.561Z,6.17
2023-02-11T11:17:31.299Z,5.79
2023-02-11T11:20:16.229Z,5.49
2023-02-11T11:22:45.492Z,5.37
2023-02-11T11:25:23.869Z,5.35
2023-02-11T11:27:52.829Z,5.36
2023-02-11T11:30:21.120Z,5.30
2023-02-11T11:32:49.052Z,5.19
2023-02-11T11:35:30.384Z,4.97
2023-02-11T11:38:02.614Z,4.81
2023-02-11T11:40:36.540Z,4.62
2023-02-11T11:43:13.598Z,4.38
2023-02-11T11:45:55.616Z,4.13
2023-02-11T11:48:28.906Z,3.98
2023-02-11T11:51:01.588Z,3.93
2023-02-11T11:53:38.775Z,3.89
2023-02-11T11:56:07.662Z,3.87
2023-02-11T11:58:35.791Z,3.85
2023-02-11T12:01:09.816Z,3.87
2023-02-11T12:03:37.550Z,3.92
2023-02-11T12:06:08.249Z,4.04
2023-02-11T12:08:59.695Z,4.09
2023-02-11T12:11:30.399Z,4.17
2023-02-11T12:14:01.552Z,4.19
2023-02-11T12:16:42.003Z,4.26
2023-02-11T12:19:28.611Z,4.24
2023-02-11T12:22:03.773Z,4.47
2023-02-11T12:24:50.558Z,4.69
2023-02-11T12:27:41.474Z,5.03
2023-02-11T12:30:09.402Z,5.35
2023-02-11T12:32:43.969Z,5.46
2023-02-11T12:35:28.247Z,5.51
2023-02-11T12:38:05.706Z,5.60
2023-02-11T12:40:57.432Z,5.55
2023-02-11T12:43:32.161Z,5.57
2023-02-11T12:46:08.716Z,5.56
2023-02-11T12:48:37.015Z,5.62
2023-02-11T12:51:26.934Z,5.71
2023-02-11T12:53:58.445Z,5.87
2023-02-11T12:56:32.692Z,6.11
2023-02-11T12:59:03.201Z,6.47
2023-02-11T13:01:37.300Z,6.83
2023-02-11T13:04:13.981Z,7.17
2023-02-11T13:06:45.334Z,7.25
2023-02-11T13:09:18.912Z,7.40
2023-02-11T13:11:52.237Z,7.74
2023-02-11T13:14:46.290Z,7.96
2023-02-11T13:17:19.759Z,7.89
2023-02-11T13:19:53.308Z,7.90
2023-02-11T13:22:28.656Z,8.10
2023-02-11T13:25:02.360Z,8.28
2023-02-11T13:27:36.112Z,8.21
2023-02-11T13:30:19.494Z,8.16
2023-02-11T13:32:56.668Z,8.08
2023-02-11T13:35:30.839Z,7.77
2023-02-11T13:38:00.683Z,7.44
2023-02-11T13:40:32.335Z,7.11
2023-02-11T13:43:01.580Z,6.72
2023-02-11T13:45:42.010Z,6.31
2023-02-11T13:48:20.345Z,5.94
2023-02-11T13:50:50.188Z,5.59
2023-02-11T13:53:18.754Z,5.30
2023-02-11T13:55:48.109Z,5.05
2023-02-11T13:58:28.473Z,4.69
2023-02-11T14:00:56.432Z,4.33
2023-02-11T14:03:47.305Z,3.96
2023-02-11T14:06:36.238Z,3.70
2023-02-11T14:09:07.165Z,3.42
2023-02-11T14:11:43.666Z,3.20
2023-02-11T14:14:27.068Z,3.01
2023-02-11T14:17:06.997Z,2.71
2023-02-11T14:19:46.184Z,2.34
2023-02-11T14:22:19.148Z,1.98
2023-02-11T14:24:47.216Z,1.58
2023-02-11T14:27:33.719Z,1.09
2023-02-11T14:30:15.050Z,0.70
2023-02-11T14:33:03.766Z,0.52
2023-02-11T14:35:56.247Z,0.47
2023-02-11T14:38:36.331Z,0.36
2023-02-11T14:41:24.514Z,0.17
2023-02-11T14:43:53.697Z,-0.01
2023-02-11T14:46:23.251Z,-0.14
2023-02-11T14:48:53.807Z,-0.19
2023-02-11T14:51:26.019Z,-0.22
2023-02-11T14:53:59.405Z,-0.22
2023-02-11T14:56:31.228Z,-0.23
2023-02-11T14:58:59.089Z,-0.24
2023-02-11T15:01:32.452Z,-0.26
2023-02-11T15:04:02.841Z,-0.28
2023-02-11T15:06:32.120Z,-0.31
2023-02-11T15:09:18.936Z,-0.35
2023-02-11T15:11:48.158Z,-0.39
2023-02-11T15:14:19.098Z,-0.42
2023-02-11T15:16:47.509Z,-0.47
2023-02-11T15:19:36.137Z,-0.54
2023-02-11T15:22:24.280Z,-0.63
2023-02-11T15:25:03.972Z,-0.77
2023-02-11T15:27:39.234Z,-0.86
2023-02-11T15:30:22.343Z,-0.97
2023-02-11T15:32:51.414Z,-1.11
2023-02-11T15:35:19.345Z,-1.23
2023-02-11T15:37:50.323Z,-1.36
2023-02-11T15:40:25.368Z,-1.52
2023-02-11T15:42:57.417Z,-1.66
2023-02-11T15:45:29.840Z,-1.79
2023-02-11T15:48:01.930Z,-1.94
2023-02-11T15:50:31.350Z,-2.11
2023-02-11T15:53:02.966Z,-2.26
2023-02-11T15:55:31.265Z,-2.40
2023-02-11T15:58:01.590Z,-2.53
2023-02-11T16:00:34.303Z,-2.59
2023-02-11T16:03:02.451Z,-2.63
2023-02-11T16:05:30.331Z,-2.65
2023-02-11T16:07:58.999Z,-2.67
2023-02-11T16:10:26.749Z,-2.67
2023-02-11T16:13:14.441Z,-2.69
2023-02-11T16:15:54.819Z,-2.68
2023-02-11T16:18:36.755Z,-2.66
2023-02-11T16:21:06.841Z,-2.63
2023-02-11T16:23:36.558Z,-2.61
2023-02-11T16:26:06.981Z,-2.61
2023-02-11T16:28:36.781Z,-2.59
2023-02-11T16:31:05.291Z,-2.58
2023-02-11T16:33:33.222Z,-2.57
2023-02-11T16:36:02.214Z,-2.55
2023-02-11T16:38:30.529Z,-2.55
2023-02-11T16:40:58.613Z,-2.54
2023-02-11T16:43:26.482Z,-2.54
2023-02-11T16:45:54.352Z,-2.54
2023-02-11T16:48:22.216Z,-2.53
2023-02-11T16:50:53.420Z,-2.53
2023-02-11T16:53:23.540Z,-2.53
2023-02-11T16:55:52.678Z,-2.57
2023-02-11T16:58:20.647Z,-2.62
2023-02-11T17:00:49.013Z,-2.65
2023-02-11T17:03:21.911Z,-2.68
2023-02-11T17:05:55.717Z,-2.70
2023-02-11T17:08:23.994Z,-2.76
2023-02-11T17:10:52.274Z,-2.82
2023-02-11T17:13:20.304Z,-2.85
2023-02-11T17:15:48.307Z,-2.89
2023-02-11T17:18:16.482Z,-2.95
2023-02-11T17:20:44.351Z,-3.02
2023-02-11T17:23:12.437Z,-3.10
2023-02-11T17:25:40.803Z,-3.17
2023-02-11T17:28:09.698Z,-3.23
2023-02-11T17:30:39.933Z,-3.30
2023-02-11T17:33:07.920Z,-3.35
2023-02-11T17:35:38.718Z,-3.40
2023-02-11T17:38:06.464Z,-3.45
2023-02-11T17:40:34.334Z,-3.50
2023-02-11T17:43:02.606Z,-3.57
2023-02-11T17:45:30.931Z,-3.64
2023-02-11T17:47:58.981Z,-3.70
2023-02-11T17:50:29.207Z,-3.74
2023-02-11T17:52:57.310Z,-3.83
2023-02-11T17:55:25.159Z,-3.87
2023-02-11T17:57:52.961Z,-3.91
2023-02-11T18:00:21.336Z,-3.96
2023-02-11T18:02:49.308Z,-3.99
2023-02-11T18:05:17.276Z,-4.02
2023-02-11T18:07:45.144Z,-4.03
2023-02-11T18:10:13.011Z,-4.04
2023-02-11T18:12:40.880Z,-4.04
2023-02-11T18:15:09.443Z,-4.02
2023-02-11T18:17:37.635Z,-4.00
2023-02-11T18:20:06.426Z,-3.96
2023-02-11T18:22:39.220Z,-3.91
2023-02-11T18:25:08.154Z,-3.87
2023-02-11T18:27:35.966Z,-3.83
2023-02-11T18:30:04.058Z,-3.79
2023-02-11T18:32:32.013Z,-3.76
2023-02-11T18:35:00.034Z,-3.74
2023-02-11T18:37:27.952Z,-3.71
2023-02-11T18:39:56.025Z,-3.67
2023-02-11T18:42:23.896Z,-3.62
2023-02-11T18:44:51.759Z,-3.57
2023-02-11T18:47:19.723Z,-3.51
2023-02-11T18:49:47.495Z,-3.46
2023-02-11T18:52:15.464Z,-3.42
2023-02-11T18:54:43.402Z,-3.37
2023-02-11T18:57:11.198Z,-3.32
2023-02-11T18:59:39.475Z,-3.28
2023-02-11T19:02:07.282Z,-3.24
2023-02-11T19:04:37.341Z,-3.21
2023-02-11T19:07:05.331Z,-3.18
2023-02-11T19:09:33.196Z,-3.15
2023-02-11T19:12:02.201Z,-3.10
2023-02-11T19:14:31.790Z,-3.06
2023-02-11T19:17:00.977Z,-3.03
2023-02-11T19:19:30.108Z,-3.00
2023-02-11T19:21:58.894Z,-2.99
2023-02-11T19:24:27.574Z,-2.98
2023-02-11T19:26:57.177Z,-2.97
2023-02-11T19:29:25.370Z,-2.95
2023-02-11T19:31:53.918Z,-2.94
2023-02-11T19:34:22.517Z,-2.93
2023-02-11T19:36:50.929Z,-2.91
2023-02-11T19:39:18.762Z,-2.88
2023-02-11T19:41:46.941Z,-2.87
2023-02-11T19:44:14.866Z,-2.85
2023-02-11T19:46:42.895Z,-2.85
2023-02-11T19:49:13.189Z,-2.82
2023-02-11T19:51:41.056Z,-2.81
2023-02-11T19:54:09.009Z,-2.83
2023-02-11T19:56:37.959Z,-2.86
2023-02-11T19:59:08.887Z,-2.87
2023-02-11T20:01:37.217Z,-2.88
2023-02-11T20:04:05.291Z,-2.91
2023-02-11T20:06:33.560Z,-2.92
2023-02-11T20:09:02.449Z,-2.90
2023-02-11T20:11:31.146Z,-2.89
2023-02-11T20:13:59.402Z,-2.86
2023-02-11T20:16:44.761Z,-2.85
2023-02-11T20:19:18.363Z,-2.83
2023-02-11T20:21:48.230Z,-2.82
2023-02-11T20:24:17.542Z,-2.80
2023-02-11T20:26:48.207Z,-2.79
2023-02-11T20:29:17.494Z,-2.78
2023-02-11T20:31:45.667Z,-2.79
2023-02-11T20:34:13.769Z,-2.81
2023-02-11T20:36:41.696Z,-2.84
2023-02-11T20:39:10.685Z,-2.87
2023-02-11T20:41:40.107Z,-2.90
2023-02-11T20:44:08.779Z,-2.94
2023-02-11T20:46:37.714Z,-2.96
2023-02-11T20:49:06.044Z,-2.97
2023-02-11T20:51:34.896Z,-2.97
2023-02-11T20:54:02.869Z,-2.98
2023-02-11T20:56:32.089Z,-2.98
2023-02-11T20:59:01.181Z,-2.99
2023-02-11T21:01:30.616Z,-3.00
2023-02-11T21:04:02.881Z,-3.00
2023-02-11T21:06:32.926Z,-2.99
2023-02-11T21:09:01.101Z,-2.98
2023-02-11T21:11:28.973Z,-2.97
2023-02-11T21:13:57.330Z,-2.95
2023-02-11T21:16:25.842Z,-2.94
2023-02-11T21:18:55.408Z,-2.94
2023-02-11T21:21:23.595Z,-2.93
2023-02-11T21:23:51.525Z,-2.92
2023-02-11T21:26:19.338Z,-2.91
2023-02-11T21:28:48.817Z,-2.92
2023-02-11T21:31:22.158Z,-2.92
2023-02-11T21:33:50.926Z,-2.93
2023-02-11T21:36:19.054Z,-2.92
2023-02-11T21:38:47.049Z,-2.91
2023-02-11T21:41:15.725Z,-2.89
2023-02-11T21:43:44.069Z,-2.88
2023-02-11T21:46:14.013Z,-2.87
2023-02-11T21:48:42.397Z,-2.88
2023-02-11T21:51:15.110Z,-2.88
2023-02-11T21:53:43.043Z,-2.87
2023-02-11T21:56:18.307Z,-2.86
2023-02-11T21:58:46.449Z,-2.86
2023-02-11T22:01:17.224Z,-2.86
2023-02-11T22:03:45.610Z,-2.85
2023-02-11T22:06:15.199Z,-2.84
2023-02-11T22:08:43.273Z,-2.84
2023-02-11T22:11:12.280Z,-2.84
2023-02-11T22:13:40.646Z,-2.83
2023-02-11T22:16:10.002Z,-2.83
2023-02-11T22:18:38.535Z,-2.82
2023-02-11T22:21:07.717Z,-2.82
2023-02-11T22:23:36.106Z,-2.80
2023-02-11T22:26:05.927Z,-2.79
2023-02-11T22:28:34.380Z,-2.79
2023-02-11T22:31:02.429Z,-2.78
2023-02-11T22:33:30.433Z,-2.76
2023-02-11T22:35:59.699Z,-2.76
2023-02-11T22:38:31.223Z,-2.78
2023-02-11T22:41:00.066Z,-2.80
2023-02-11T22:43:27.916Z,-2.80
2023-02-11T22:45:59.606Z,-2.78
2023-02-11T22:48:28.490Z,-2.78
2023-02-11T22:50:56.533Z,-2.78
2023-02-11T22:53:25.639Z,-2.78
2023-02-11T22:55:53.833Z,-2.79
2023-02-11T22:58:22.178Z,-2.80
2023-02-11T23:00:50.077Z,-2.83
2023-02-11T23:03:17.861Z,-2.86
2023-02-11T23:05:45.706Z,-2.86
2023-02-11T23:08:13.781Z,-2.84
2023-02-11T23:10:41.772Z,-2.82
2023-02-11T23:13:10.523Z,-2.80
2023-02-11T23:15:42.191Z,-2.78
2023-02-11T23:18:10.688Z,-2.76
2023-02-11T23:20:39.977Z,-2.74
2023-02-11T23:23:07.948Z,-2.73
2023-02-11T23:25:41.354Z,-2.72
2023-02-11T23:28:09.471Z,-2.71
2023-02-11T23:30:37.575Z,-2.71
2023-02-11T23:33:05.384Z,-2.70
2023-02-11T23:35:33.333Z,-2.70
2023-02-11T23:38:01.386Z,-2.69
2023-02-11T23:40:29.181Z,-2.69
2023-02-11T23:42:56.978Z,-2.71
2023-02-11T23:45:24.978Z,-2.73
2023-02-11T23:47:53.271Z,-2.73
2023-02-11T23:50:21.447Z,-2.73
2023-02-11T23:52:49.426Z,-2.73
2023-02-11T23:55:17.393Z,-2.74
2023-02-11T23:57:45.313Z,-2.75
